Stations météo

réclame
Mon MeteoGroup
Brocken, Allemagne (10453): Température de l'air & dewpoint: 17.10.2018 12:00:00 - 23.10.2018 12:00:00 (CEST)Brocken, Allemagne (10453): Température de l'air 5cm: 17.10.2018 12:00:00 - 23.10.2018 12:00:00 (CEST)Brocken, Allemagne (10453): Vitesse du vent & gusts: 17.10.2018 12:00:00 - 23.10.2018 12:00:00 (CEST)Brocken, Allemagne (10453): Direction du vent: 17.10.2018 12:00:00 - 23.10.2018 12:00:00 (CEST)Brocken, Allemagne (10453): visibility: 17.10.2018 12:00:00 - 23.10.2018 12:00:00 (CEST)Brocken, Allemagne (10453): Ensoleillement: 17.10.2018 12:00:00 - 23.10.2018 12:00:00 (CEST)
Date & Time tt [°C] td [°C] tt 5cm [°C] ff [km/h] ff [knt] fx [km/h] fx [knt] dd vv [km] sd [min]
23.10.2018 12:00:00 1,8 1,8 2,1 86 46 109 59 W - 0
23.10.2018 11:00:00 1,4 1,4 1,6 83 45 121 65 W - 0
23.10.2018 10:00:00 0,8 0,8 0,9 89 48 122 66 W - 0
23.10.2018 09:00:00 0,5 0,5 0,2 93 50 121 65 W - 0
23.10.2018 08:00:00 -0,2 -0,2 -0,2 85 46 108 58 W - 0
23.10.2018 07:00:00 -0,3 -0,3 -0,2 80 43 103 56 WSW - 0
23.10.2018 06:00:00 -0,5 -0,6 -0,6 72 39 92 50 W - 0
23.10.2018 05:00:00 -0,5 -1,0 -0,7 66 35 83 45 W 35 0
23.10.2018 04:00:00 -0,4 -1,1 -1,0 58 31 82 44 W 35 0
23.10.2018 03:00:00 -0,2 -0,5 -0,8 62 33 79 43 W 25 0
23.10.2018 02:00:00 -0,4 -0,9 -0,9 59 32 67 36 W 35 0
23.10.2018 01:00:00 -0,2 -0,4 -0,8 51 27 57 31 W 40 0
23.10.2018 00:00:00 -0,1 -0,6 -0,8 45 25 50 27 WNW 40 0
22.10.2018 23:00:00 -0,1 -0,3 -0,5 29 16 46 25 NW 40 0
22.10.2018 22:00:00 -0,1 -0,4 -0,8 39 21 45 25 NW 50 0
22.10.2018 21:00:00 1,0 1,0 1,1 36 19 47 26 NNW - 0
22.10.2018 20:00:00 2,1 2,1 2,2 31 17 55 30 NNW - 0
22.10.2018 19:00:00 2,4 2,4 2,6 44 24 64 34 NNW - 0
22.10.2018 18:00:00 2,9 2,9 3,1 50 27 74 40 NNW - 0
22.10.2018 17:00:00 2,8 2,8 3,3 49 26 68 37 N - 0
22.10.2018 16:00:00 2,8 2,8 3,7 51 28 74 40 N - 0
22.10.2018 15:00:00 2,5 2,5 3,7 51 27 72 39 N - 1
22.10.2018 14:00:00 1,9 1,9 3,1 41 22 62 33 N - 0
22.10.2018 13:00:00 2,1 2,1 2,7 45 25 76 41 N - 0
22.10.2018 12:00:00 3,9 3,9 4,3 51 27 67 36 NNW - 0
22.10.2018 11:00:00 4,2 4,2 4,4 40 21 46 25 WNW - 0
22.10.2018 10:00:00 4,6 4,6 4,8 34 18 54 29 WNW - 0
22.10.2018 09:00:00 4,8 4,8 4,8 45 24 53 29 WNW - 0
22.10.2018 08:00:00 5,1 5,1 5,0 42 23 50 27 WNW - 0
22.10.2018 07:00:00 5,5 5,5 5,2 37 20 46 25 NW 0,1 0
22.10.2018 06:00:00 5,5 5,3 4,0 39 21 51 28 WNW 30 0
22.10.2018 05:00:00 4,0 2,9 2,5 45 24 47 26 W 50 0
22.10.2018 04:00:00 3,9 3,1 2,5 40 22 44 24 W 50 0
22.10.2018 03:00:00 4,0 3,1 2,3 29 16 35 19 WSW 50 0
22.10.2018 02:00:00 4,1 3,2 2,5 33 18 39 21 W 60 0
22.10.2018 01:00:00 4,3 3,2 2,4 26 14 29 16 WSW 60 0
22.10.2018 00:00:00 4,6 3,2 2,5 21 12 25 14 WSW 60 0
21.10.2018 23:00:00 5,0 2,4 2,5 22 12 25 14 WSW 60 0
21.10.2018 22:00:00 4,7 3,1 2,6 22 12 23 13 SW 70 0
21.10.2018 21:00:00 5,0 2,7 2,6 16 9 18 10 SSW 80 0
21.10.2018 20:00:00 5,0 3,2 0,6 9 5 13 7 SW 70 0
21.10.2018 19:00:00 4,9 3,7 1,5 12 7 16 9 SW 30 7
21.10.2018 18:00:00 5,3 3,9 3,7 12 6 19 10 SW 30 35
21.10.2018 17:00:00 5,8 4,4 6,6 13 7 20 11 SSW 40 5
21.10.2018 16:00:00 6,4 4,1 7,6 9 5 14 7 W 20 0
21.10.2018 15:00:00 6,5 4,8 8,0 5 3 13 7 NNE 20 14
21.10.2018 14:00:00 7,7 5,0 11,9 7 4 11 6 WSW 30 10
21.10.2018 13:00:00 5,9 5,1 8,0 5 3 15 8 NNW 10 0
21.10.2018 12:00:00 4,7 4,6 5,9 11 6 24 13 N 0,1 0
21.10.2018 11:00:00 4,4 4,4 5,1 17 9 32 18 N 0,1 0
21.10.2018 10:00:00 4,1 4,1 5,0 25 13 44 24 N - 0
21.10.2018 09:00:00 3,8 3,7 4,0 28 15 49 27 N - 0
21.10.2018 08:00:00 4,0 4,0 4,0 35 19 54 29 NNW - 0
21.10.2018 07:00:00 4,0 3,9 4,2 33 18 54 29 N - 0
21.10.2018 06:00:00 4,2 4,2 4,2 33 18 50 27 NNW - 0
21.10.2018 05:00:00 4,2 4,2 4,3 35 19 50 27 NNW - 0
21.10.2018 04:00:00 4,3 4,3 4,4 36 19 51 27 NNW - 0
21.10.2018 03:00:00 4,2 4,2 4,3 36 19 48 26 NNW - 0
21.10.2018 02:00:00 4,1 4,1 4,1 31 17 42 23 NW - 0
21.10.2018 01:00:00 3,9 3,9 3,9 34 18 47 26 NNW - 0
21.10.2018 00:00:00 4,1 4,1 4,0 36 20 46 25 NNW - 0
20.10.2018 23:00:00 3,5 3,5 3,4 33 18 40 21 NNW - 0
20.10.2018 22:00:00 3,2 3,2 3,1 33 18 38 21 NW 0,2 0
20.10.2018 21:00:00 3,1 3,0 2,5 24 13 31 17 NW 0,3 0
20.10.2018 20:00:00 3,1 2,9 2,9 26 14 34 19 NW 30 0
20.10.2018 19:00:00 2,9 2,3 2,1 31 17 35 19 NW 40 0
20.10.2018 18:00:00 3,1 1,9 2,2 27 15 33 18 NNW 40 34
20.10.2018 17:00:00 4,3 2,1 4,0 20 11 29 16 NNW 60 17
20.10.2018 16:00:00 5,8 1,7 8,7 22 12 30 16 NNW 60 28
20.10.2018 15:00:00 6,4 0,9 8,4 18 10 26 14 NNW 40 36
20.10.2018 14:00:00 6,0 1,0 15,2 13 7 20 11 N 40 57
20.10.2018 13:00:00 5,1 1,2 12,8 10 6 29 16 N 40 60
20.10.2018 12:00:00 4,5 -0,1 8,6 22 12 30 16 NNE 30 60
20.10.2018 11:00:00 4,8 1,7 1,8 15 8 29 16 NNW 25 53
20.10.2018 10:00:00 2,9 2,0 4,2 23 12 32 17 NNW 1,0 12
20.10.2018 09:00:00 2,5 2,4 2,9 23 12 31 17 N - 0
20.10.2018 08:00:00 2,6 2,1 1,8 24 13 29 15 WNW 1,0 0
20.10.2018 07:00:00 2,8 2,1 0,7 25 14 27 15 W 80 0
20.10.2018 06:00:00 3,3 1,7 2,2 19 11 26 14 WNW 80 0
20.10.2018 05:00:00 4,0 2,1 3,0 20 11 26 14 WNW 80 0
20.10.2018 04:00:00 4,3 2,1 2,5 21 11 27 15 WNW 80 0
20.10.2018 03:00:00 4,1 1,7 1,0 18 10 23 12 W 80 0
20.10.2018 02:00:00 4,0 1,5 0,6 16 9 24 13 W 82 0
20.10.2018 01:00:00 3,8 2,1 -0,6 14 8 19 11 WSW 82 0
20.10.2018 00:00:00 4,0 2,0 0,3 16 8 21 12 WSW 82 0
19.10.2018 23:00:00 4,2 1,0 1,5 16 9 21 11 W 82 0
19.10.2018 22:00:00 4,7 1,8 3,2 12 7 17 9 W 82 0
19.10.2018 21:00:00 4,8 1,9 4,1 10 5 16 9 W 82 0
19.10.2018 20:00:00 4,8 3,0 4,2 8 4 11 6 WSW 80 0
19.10.2018 19:00:00 4,5 4,0 4,4 6 4 13 7 S 60 0
19.10.2018 18:00:00 4,9 3,8 5,0 10 5 13 7 SSE 60 0
19.10.2018 17:00:00 5,7 4,6 6,0 4 2 10 5 E 65 0
19.10.2018 16:00:00 6,1 4,8 7,0 3 2 15 8 NE 60 1
19.10.2018 15:00:00 6,6 4,2 8,4 10 6 16 8 S 50 2
19.10.2018 14:00:00 6,1 4,6 7,8 10 5 16 8 S 50 0
19.10.2018 13:00:00 6,6 4,8 8,6 7 4 16 9 E 25 1
19.10.2018 12:00:00 6,9 3,8 7,8 8 4 12 6 NNW 45 3
19.10.2018 11:00:00 6,0 2,7 6,1 7 4 14 8 W 40 0
19.10.2018 10:00:00 5,3 3,4 5,4 5 3 9 5 WNW 40 0
19.10.2018 09:00:00 4,7 3,7 4,7 6 3 11 6 N 35 0
19.10.2018 08:00:00 4,6 3,9 4,4 6 4 9 5 N 35 0
19.10.2018 07:00:00 4,5 3,9 4,5 7 4 12 7 ENE 15 0
19.10.2018 06:00:00 4,5 3,6 4,4 8 5 16 9 NE 1,0 0
19.10.2018 05:00:00 4,6 4,3 4,8 11 6 16 9 ENE 0,5 0
19.10.2018 04:00:00 4,8 4,8 5,0 10 5 17 9 ENE - 0
19.10.2018 03:00:00 5,0 5,0 5,1 9 5 11 6 E - 0
19.10.2018 02:00:00 5,1 5,1 5,3 12 6 22 12 E - 0
19.10.2018 01:00:00 5,2 5,2 5,3 15 8 34 18 ENE - 0
19.10.2018 00:00:00 5,3 5,1 5,6 19 10 32 17 NNE - 0
18.10.2018 23:00:00 5,8 5,8 6,0 22 12 35 19 NNE - 0
18.10.2018 22:00:00 5,7 5,7 5,9 34 18 40 22 NNE - 0
18.10.2018 21:00:00 5,4 5,4 5,7 31 17 38 20 NNE - 0
18.10.2018 20:00:00 5,4 5,3 5,5 27 15 36 19 NNE 0,2 0
18.10.2018 19:00:00 5,4 5,3 5,5 23 13 34 18 N 0,1 0
18.10.2018 18:00:00 5,4 5,0 5,7 27 14 37 20 N 8 1
18.10.2018 17:00:00 6,0 5,5 7,1 26 14 36 20 NNW - 0
18.10.2018 16:00:00 7,1 6,6 8,7 23 12 31 17 NNW - 10
18.10.2018 15:00:00 8,3 6,8 10,6 19 11 32 17 NNW - 27
18.10.2018 14:00:00 9,0 6,3 9,4 23 13 31 17 WNW 15 28
18.10.2018 13:00:00 8,5 7,7 10,0 23 12 31 17 WNW 0,1 20
18.10.2018 12:00:00 8,5 8,3 9,4 26 14 34 19 NW - 0
18.10.2018 11:00:00 8,8 8,8 10,4 23 13 33 18 NNW - 0
18.10.2018 10:00:00 8,1 8,1 9,0 19 10 31 17 N - 0
18.10.2018 09:00:00 7,7 7,7 7,9 24 13 38 21 N - 0
18.10.2018 08:00:00 7,6 7,6 7,5 33 18 42 23 N - 0
18.10.2018 07:00:00 9,1 9,0 7,9 33 18 41 22 N 0,1 0
18.10.2018 06:00:00 9,3 9,3 8,6 34 18 40 22 NNW - 0
18.10.2018 05:00:00 9,7 9,0 7,8 24 13 34 19 N 12 0
18.10.2018 04:00:00 9,9 8,6 7,8 21 11 33 18 N 12 0
18.10.2018 03:00:00 9,8 8,9 7,6 24 13 32 17 N 14 0
18.10.2018 02:00:00 10,1 8,5 7,7 21 11 23 13 N 13 0
18.10.2018 01:00:00 9,9 8,7 7,2 15 8 16 9 N 14 0
18.10.2018 00:00:00 10,4 8,5 7,1 14 7 18 10 N 15 0
17.10.2018 23:00:00 10,9 7,7 6,3 13 7 20 11 N 18 0
17.10.2018 22:00:00 10,9 7,5 6,3 15 8 16 9 NNE 20 0
17.10.2018 21:00:00 10,6 7,9 7,2 13 7 15 8 N 25 0
17.10.2018 20:00:00 10,4 7,3 7,2 12 7 13 7 N 30 0
17.10.2018 19:00:00 10,6 7,6 6,7 9 5 14 8 N 30 0
17.10.2018 18:00:00 12,0 6,5 8,8 11 6 15 8 NNW 60 43
17.10.2018 17:00:00 13,5 8,1 15,1 10 5 15 8 N 70 60
17.10.2018 16:00:00 13,5 9,0 18,3 10 5 19 10 N 70 60
17.10.2018 15:00:00 16,3 9,2 20,1 12 6 19 10 NNW 80 60
17.10.2018 14:00:00 14,9 8,9 20,0 12 7 19 10 N 80 60
17.10.2018 13:00:00 14,6 7,9 19,6 8 4 16 9 NNE 80 60
17.10.2018 12:00:00 13,4 7,5 17,5 13 7 22 12 N 80 60

tt = Température de l'air
td = dewpoint
tt 5cm = Température de l'air 5cm
ff = Vitesse du vent
fx = gusts
dd = Direction du vent
vv = visibility
sd = Ensoleillement

stations d'obs. à proximité